Main page
METAR-TAF:

METAR-TAF

Airports :

Oslo Airport. Gardermoen

Oslo, Norway

latitude: 60-12N, longitude: 011-05E, elevation: 208 m

Current weather observation

The report was made 29 minutes ago, at 04:20 UTC
Wind 2 kt from variable directions
Temperature 15°C
Humidity 94%
Pressure 1006 hPa
Visibility: 8000 m
Few clouds at a height of 300 ft
Scattered clouds at a height of 600 ft
Broken clouds at a height of 1100 ft
light drizzle

METAR: ENGM 220420Z VRB02KT 8000 -DZ FEW003 SCT006 BKN011 15/14 Q1006 TEMPO BKN006

Time: 06:49 (04:49 UTC)

Forecast

Forecast valid from 22 at 00 UTC to 22 at 24 UTC
Wind 5 kt from variable directions
Visibility 10 km or more
no clouds below 1500 m and no cumulonimbus
Probability 40%
from 22 at 00 UTC to 22 at 07 UTC
Visibility: 1500 m
Broken clouds at a height of 200 ft
patches of fog
Becoming
from 22 at 09 UTC to 22 at 11 UTC
Wind 10 kt from the South

TAF: ENGM 2200/2224 VRB05KT CAVOK PROB40 2200/2207 1500 BCFG BKN002 BECMG 2209/2211 18010KT

Weather observations and forecasts of more than 4000 airports (METAR and TAF reports).

The available stations are represented by yellow and red dots on the map.

Hover mouse over dot to see the name of the station.

Then click to see weather observations and forecasts.

To change the map : click on the green buttons with a black cross to zoom in, on the green button with a dash to zoom out, or on the green arrows for adjacent maps.


METAR-TAF: